ESUO weather

Graftavallen Airport
Graftavallen, Jämtlande län, Sweden

Public forecast

Using degrees Celsius for public forecast. Weather courtesy of forecast.io.

Closest aviation weather report (METAR) to Graftavallen Airport

Closest report is Åre Östersund Airport, 16.4 nm (30.3 km) NE. Retrieved 2020/02/20 01:20 UTC (30 minutes ago):

ESNZ 200120Z AUTO 15011KT 9999 NCD M07/M10 Q1003

Closest aviation forecast (TAF) to Graftavallen Airport

Closest forecast is Trondheim Airport Værnes, 86.8 nm (160.8 km) WNW. Retrieved 2020-02-20 00:57 UTC (53 minutes ago):

TAF ENVA 192300Z 2000/2024 12012KT 9999 FEW050 TEMPO 2000/2012 15015G28KT TEMPO 2012/2019 17025G35KT BECMG 2019/2022 25015KT 1500 SNRA VV009